sensor_id;sensor_type;location;lat;lon;timestamp;P1;P2;P0
56175;PMS5003;63065;51.082;17.016;2023-03-01T00:01:28;107;100;
56175;PMS5003;63065;51.082;17.016;2023-03-01T00:03:53;107;93;
56175;PMS5003;63065;51.082;17.016;2023-03-01T00:06:18;107;99;
56175;PMS5003;63065;51.082;17.016;2023-03-01T00:08:43;102;91;
56175;PMS5003;63065;51.082;17.016;2023-03-01T00:11:10;108;99;
56175;PMS5003;63065;51.082;17.016;2023-03-01T00:13:34;111;93;
56175;PMS5003;63065;51.082;17.016;2023-03-01T00:16:01;108;96;
56175;PMS5003;63065;51.082;17.016;2023-03-01T00:18:25;123;112;
56175;PMS5003;63065;51.082;17.016;2023-03-01T00:20:50;100;96;
56175;PMS5003;63065;51.082;17.016;2023-03-01T00:23:16;105;100;
56175;PMS5003;63065;51.082;17.016;2023-03-01T00:25:42;109;97;
56175;PMS5003;63065;51.082;17.016;2023-03-01T00:28:07;119;103;
56175;PMS5003;63065;51.082;17.016;2023-03-01T00:30:33;114;100;
56175;PMS5003;63065;51.082;17.016;2023-03-01T00:32:58;101;93;
56175;PMS5003;63065;51.082;17.016;2023-03-01T00:35:24;105;98;
56175;PMS5003;63065;51.082;17.016;2023-03-01T00:37:49;101;96;
56175;PMS5003;63065;51.082;17.016;2023-03-01T00:40:15;99;97;
56175;PMS5003;63065;51.082;17.016;2023-03-01T00:42:40;98;94;
56175;PMS5003;63065;51.082;17.016;2023-03-01T00:45:06;106;99;
56175;PMS5003;63065;51.082;17.016;2023-03-01T00:47:31;110;102;
56175;PMS5003;63065;51.082;17.016;2023-03-01T00:49:57;105;99;
56175;PMS5003;63065;51.082;17.016;2023-03-01T00:52:22;99;92;
56175;PMS5003;63065;51.082;17.016;2023-03-01T00:54:48;103;95;
56175;PMS5003;63065;51.082;17.016;2023-03-01T00:57:13;105;96;
56175;PMS5003;63065;51.082;17.016;2023-03-01T00:59:39;103;93;
56175;PMS5003;63065;51.082;17.016;2023-03-01T01:02:04;99;95;
56175;PMS5003;63065;51.082;17.016;2023-03-01T01:04:29;104;96;
56175;PMS5003;63065;51.082;17.016;2023-03-01T01:06:54;101;98;
56175;PMS5003;63065;51.082;17.016;2023-03-01T01:09:20;114;99;
56175;PMS5003;63065;51.082;17.016;2023-03-01T01:11:46;104;91;
56175;PMS5003;63065;51.082;17.016;2023-03-01T01:14:11;104;95;
56175;PMS5003;63065;51.082;17.016;2023-03-01T01:16:36;113;101;
56175;PMS5003;63065;51.082;17.016;2023-03-01T01:19:02;109;98;
56175;PMS5003;63065;51.082;17.016;2023-03-01T01:21:28;111;100;
56175;PMS5003;63065;51.082;17.016;2023-03-01T01:23:53;119;105;
56175;PMS5003;63065;51.082;17.016;2023-03-01T01:26:20;115;103;
56175;PMS5003;63065;51.082;17.016;2023-03-01T01:28:44;104;98;
56175;PMS5003;63065;51.082;17.016;2023-03-01T01:31:09;111;109;
56175;PMS5003;63065;51.082;17.016;2023-03-01T01:33:35;109;98;
56175;PMS5003;63065;51.082;17.016;2023-03-01T01:36:00;119;109;
56175;PMS5003;63065;51.082;17.016;2023-03-01T01:38:25;131;112;
56175;PMS5003;63065;51.082;17.016;2023-03-01T01:40:51;136;121;
56175;PMS5003;63065;51.082;17.016;2023-03-01T01:43:18;116;110;
56175;PMS5003;63065;51.082;17.016;2023-03-01T01:45:43;127;109;
56175;PMS5003;63065;51.082;17.016;2023-03-01T01:48:10;101;94;
56175;PMS5003;63065;51.082;17.016;2023-03-01T01:50:34;124;108;
56175;PMS5003;63065;51.082;17.016;2023-03-01T01:52:59;125;115;
56175;PMS5003;63065;51.082;17.016;2023-03-01T01:55:25;115;105;
56175;PMS5003;63065;51.082;17.016;2023-03-01T01:57:51;109;97;
56175;PMS5003;63065;51.082;17.016;2023-03-01T02:00:17;113;101;
56175;PMS5003;63065;51.082;17.016;2023-03-01T02:02:41;116;105;
56175;PMS5003;63065;51.082;17.016;2023-03-01T02:05:09;119;107;
56175;PMS5003;63065;51.082;17.016;2023-03-01T02:07:31;117;107;
56175;PMS5003;63065;51.082;17.016;2023-03-01T02:09:57;116;106;
56175;PMS5003;63065;51.082;17.016;2023-03-01T02:12:23;120;108;
56175;PMS5003;63065;51.082;17.016;2023-03-01T02:14:48;123;110;
56175;PMS5003;63065;51.082;17.016;2023-03-01T02:17:14;119;112;
56175;PMS5003;63065;51.082;17.016;2023-03-01T02:19:41;115;105;
56175;PMS5003;63065;51.082;17.016;2023-03-01T02:22:07;124;111;
56175;PMS5003;63065;51.082;17.016;2023-03-01T02:24:31;122;108;
56175;PMS5003;63065;51.082;17.016;2023-03-01T02:26:55;126;113;
56175;PMS5003;63065;51.082;17.016;2023-03-01T02:29:20;120;104;
56175;PMS5003;63065;51.082;17.016;2023-03-01T02:31:45;105;98;
56175;PMS5003;63065;51.082;17.016;2023-03-01T02:34:12;114;108;
56175;PMS5003;63065;51.082;17.016;2023-03-01T02:36:37;115;105;
56175;PMS5003;63065;51.082;17.016;2023-03-01T02:39:03;122;109;
56175;PMS5003;63065;51.082;17.016;2023-03-01T02:41:28;114;109;
56175;PMS5003;63065;51.082;17.016;2023-03-01T02:43:52;115;101;
56175;PMS5003;63065;51.082;17.016;2023-03-01T02:46:19;132;115;
56175;PMS5003;63065;51.082;17.016;2023-03-01T02:48:44;106;100;
56175;PMS5003;63065;51.082;17.016;2023-03-01T02:51:11;128;111;
56175;PMS5003;63065;51.082;17.016;2023-03-01T02:53:37;127;113;
56175;PMS5003;63065;51.082;17.016;2023-03-01T02:56:00;137;109;
56175;PMS5003;63065;51.082;17.016;2023-03-01T02:58:26;121;111;
56175;PMS5003;63065;51.082;17.016;2023-03-01T03:00:51;124;115;
56175;PMS5003;63065;51.082;17.016;2023-03-01T03:03:17;119;106;
56175;PMS5003;63065;51.082;17.016;2023-03-01T03:05:42;126;111;
56175;PMS5003;63065;51.082;17.016;2023-03-01T03:08:07;128;112;
56175;PMS5003;63065;51.082;17.016;2023-03-01T03:10:34;128;114;
56175;PMS5003;63065;51.082;17.016;2023-03-01T03:12:59;123;109;
56175;PMS5003;63065;51.082;17.016;2023-03-01T03:15:25;134;118;
56175;PMS5003;63065;51.082;17.016;2023-03-01T03:17:50;117;111;
56175;PMS5003;63065;51.082;17.016;2023-03-01T03:20:16;137;120;
56175;PMS5003;63065;51.082;17.016;2023-03-01T03:22:40;131;121;
56175;PMS5003;63065;51.082;17.016;2023-03-01T03:25:06;126;121;
56175;PMS5003;63065;51.082;17.016;2023-03-01T03:27:31;120;106;
56175;PMS5003;63065;51.082;17.016;2023-03-01T03:29:56;118;113;
56175;PMS5003;63065;51.082;17.016;2023-03-01T03:32:22;130;118;
56175;PMS5003;63065;51.082;17.016;2023-03-01T03:34:48;127;118;
56175;PMS5003;63065;51.082;17.016;2023-03-01T03:37:13;129;116;
56175;PMS5003;63065;51.082;17.016;2023-03-01T03:39:39;138;123;
56175;PMS5003;63065;51.082;17.016;2023-03-01T03:42:04;115;110;
56175;PMS5003;63065;51.082;17.016;2023-03-01T03:44:29;129;117;
56175;PMS5003;63065;51.082;17.016;2023-03-01T03:46:55;135;127;
56175;PMS5003;63065;51.082;17.016;2023-03-01T03:49:21;128;117;
56175;PMS5003;63065;51.082;17.016;2023-03-01T03:51:46;142;123;
56175;PMS5003;63065;51.082;17.016;2023-03-01T03:54:12;121;109;
56175;PMS5003;63065;51.082;17.016;2023-03-01T03:56:37;130;115;
56175;PMS5003;63065;51.082;17.016;2023-03-01T03:59:03;146;123;
56175;PMS5003;63065;51.082;17.016;2023-03-01T04:01:28;135;111;
56175;PMS5003;63065;51.082;17.016;2023-03-01T04:03:54;128;117;
56175;PMS5003;63065;51.082;17.016;2023-03-01T04:06:19;133;112;
56175;PMS5003;63065;51.082;17.016;2023-03-01T04:08:44;122;111;
56175;PMS5003;63065;51.082;17.016;2023-03-01T04:11:10;125;114;
56175;PMS5003;63065;51.082;17.016;2023-03-01T04:13:35;119;111;
56175;PMS5003;63065;51.082;17.016;2023-03-01T04:16:01;123;111;
56175;PMS5003;63065;51.082;17.016;2023-03-01T04:18:26;143;123;
56175;PMS5003;63065;51.082;17.016;2023-03-01T04:20:52;128;114;
56175;PMS5003;63065;51.082;17.016;2023-03-01T04:23:18;131;119;
56175;PMS5003;63065;51.082;17.016;2023-03-01T04:25:45;139;118;
56175;PMS5003;63065;51.082;17.016;2023-03-01T04:28:08;127;112;
56175;PMS5003;63065;51.082;17.016;2023-03-01T04:30:34;135;118;
56175;PMS5003;63065;51.082;17.016;2023-03-01T04:32:58;132;119;
56175;PMS5003;63065;51.082;17.016;2023-03-01T04:35:24;118;112;
56175;PMS5003;63065;51.082;17.016;2023-03-01T04:37:50;139;126;
56175;PMS5003;63065;51.082;17.016;2023-03-01T04:40:15;122;114;
56175;PMS5003;63065;51.082;17.016;2023-03-01T04:42:41;135;121;
56175;PMS5003;63065;51.082;17.016;2023-03-01T04:45:06;132;119;
56175;PMS5003;63065;51.082;17.016;2023-03-01T04:47:32;133;120;
56175;PMS5003;63065;51.082;17.016;2023-03-01T04:49:57;128;115;
56175;PMS5003;63065;51.082;17.016;2023-03-01T04:52:22;139;116;
56175;PMS5003;63065;51.082;17.016;2023-03-01T04:54:48;126;109;
56175;PMS5003;63065;51.082;17.016;2023-03-01T04:57:13;131;118;
56175;PMS5003;63065;51.082;17.016;2023-03-01T04:59:39;131;119;
56175;PMS5003;63065;51.082;17.016;2023-03-01T05:02:04;127;116;
56175;PMS5003;63065;51.082;17.016;2023-03-01T05:04:35;118;105;
56175;PMS5003;63065;51.082;17.016;2023-03-01T05:06:55;126;113;
56175;PMS5003;63065;51.082;17.016;2023-03-01T05:09:21;130;120;
56175;PMS5003;63065;51.082;17.016;2023-03-01T05:11:46;123;113;
56175;PMS5003;63065;51.082;17.016;2023-03-01T05:14:11;135;121;
56175;PMS5003;63065;51.082;17.016;2023-03-01T05:16:37;113;103;
56175;PMS5003;63065;51.082;17.016;2023-03-01T05:19:02;129;122;
56175;PMS5003;63065;51.082;17.016;2023-03-01T05:21:27;133;119;
56175;PMS5003;63065;51.082;17.016;2023-03-01T05:23:53;131;115;
56175;PMS5003;63065;51.082;17.016;2023-03-01T05:26:19;135;121;
56175;PMS5003;63065;51.082;17.016;2023-03-01T05:28:45;124;117;
56175;PMS5003;63065;51.082;17.016;2023-03-01T05:31:09;128;119;
56175;PMS5003;63065;51.082;17.016;2023-03-01T05:33:35;121;113;
56175;PMS5003;63065;51.082;17.016;2023-03-01T05:36:02;126;116;
56175;PMS5003;63065;51.082;17.016;2023-03-01T05:38:26;131;122;
56175;PMS5003;63065;51.082;17.016;2023-03-01T05:40:51;115;105;
56175;PMS5003;63065;51.082;17.016;2023-03-01T05:43:17;147;135;
56175;PMS5003;63065;51.082;17.016;2023-03-01T05:45:43;134;116;
56175;PMS5003;63065;51.082;17.016;2023-03-01T05:48:09;126;117;
56175;PMS5003;63065;51.082;17.016;2023-03-01T05:50:34;137;126;
56175;PMS5003;63065;51.082;17.016;2023-03-01T05:53:00;121;110;
56175;PMS5003;63065;51.082;17.016;2023-03-01T05:55:25;117;110;
56175;PMS5003;63065;51.082;17.016;2023-03-01T05:57:50;121;110;
56175;PMS5003;63065;51.082;17.016;2023-03-01T06:00:17;122;116;
56175;PMS5003;63065;51.082;17.016;2023-03-01T06:02:41;133;122;
56175;PMS5003;63065;51.082;17.016;2023-03-01T06:05:07;122;110;
56175;PMS5003;63065;51.082;17.016;2023-03-01T06:07:32;133;116;
56175;PMS5003;63065;51.082;17.016;2023-03-01T06:09:57;140;124;
56175;PMS5003;63065;51.082;17.016;2023-03-01T06:12:22;137;121;
56175;PMS5003;63065;51.082;17.016;2023-03-01T06:14:48;128;114;
56175;PMS5003;63065;51.082;17.016;2023-03-01T06:17:13;115;106;
56175;PMS5003;63065;51.082;17.016;2023-03-01T06:19:38;121;111;
56175;PMS5003;63065;51.082;17.016;2023-03-01T06:22:04;127;118;
56175;PMS5003;63065;51.082;17.016;2023-03-01T06:24:29;138;129;
56175;PMS5003;63065;51.082;17.016;2023-03-01T06:26:54;139;128;
56175;PMS5003;63065;51.082;17.016;2023-03-01T06:29:20;138;125;
56175;PMS5003;63065;51.082;17.016;2023-03-01T06:31:45;140;122;
56175;PMS5003;63065;51.082;17.016;2023-03-01T06:34:11;128;114;
56175;PMS5003;63065;51.082;17.016;2023-03-01T06:36:36;132;125;
56175;PMS5003;63065;51.082;17.016;2023-03-01T06:39:02;135;123;
56175;PMS5003;63065;51.082;17.016;2023-03-01T06:41:27;122;113;
56175;PMS5003;63065;51.082;17.016;2023-03-01T06:43:54;122;115;
56175;PMS5003;63065;51.082;17.016;2023-03-01T06:46:18;132;120;
56175;PMS5003;63065;51.082;17.016;2023-03-01T06:48:44;135;121;
56175;PMS5003;63065;51.082;17.016;2023-03-01T06:51:09;144;132;
56175;PMS5003;63065;51.082;17.016;2023-03-01T06:53:34;158;139;
56175;PMS5003;63065;51.082;17.016;2023-03-01T06:56:00;133;126;
56175;PMS5003;63065;51.082;17.016;2023-03-01T06:58:25;156;142;
56175;PMS5003;63065;51.082;17.016;2023-03-01T07:00:51;145;135;
56175;PMS5003;63065;51.082;17.016;2023-03-01T07:03:16;146;130;
56175;PMS5003;63065;51.082;17.016;2023-03-01T07:05:41;159;140;
56175;PMS5003;63065;51.082;17.016;2023-03-01T07:08:07;146;139;
56175;PMS5003;63065;51.082;17.016;2023-03-01T07:10:32;161;144;
56175;PMS5003;63065;51.082;17.016;2023-03-01T07:12:58;150;131;
56175;PMS5003;63065;51.082;17.016;2023-03-01T07:15:23;161;145;
56175;PMS5003;63065;51.082;17.016;2023-03-01T07:17:48;144;141;
56175;PMS5003;63065;51.082;17.016;2023-03-01T07:20:14;157;145;
56175;PMS5003;63065;51.082;17.016;2023-03-01T07:22:40;152;144;
56175;PMS5003;63065;51.082;17.016;2023-03-01T07:25:05;146;131;
56175;PMS5003;63065;51.082;17.016;2023-03-01T07:27:32;160;148;
56175;PMS5003;63065;51.082;17.016;2023-03-01T07:29:56;140;132;
56175;PMS5003;63065;51.082;17.016;2023-03-01T07:32:21;150;134;
56175;PMS5003;63065;51.082;17.016;2023-03-01T07:34:46;148;136;
56175;PMS5003;63065;51.082;17.016;2023-03-01T07:37:12;138;128;
56175;PMS5003;63065;51.082;17.016;2023-03-01T07:39:37;154;131;
56175;PMS5003;63065;51.082;17.016;2023-03-01T07:42:03;129;112;
56175;PMS5003;63065;51.082;17.016;2023-03-01T07:44:28;140;127;
56175;PMS5003;63065;51.082;17.016;2023-03-01T07:46:54;130;123;
56175;PMS5003;63065;51.082;17.016;2023-03-01T07:49:20;136;125;
56175;PMS5003;63065;51.082;17.016;2023-03-01T07:51:45;151;138;
56175;PMS5003;63065;51.082;17.016;2023-03-01T07:54:10;134;124;
56175;PMS5003;63065;51.082;17.016;2023-03-01T07:56:36;146;134;
56175;PMS5003;63065;51.082;17.016;2023-03-01T07:59:01;124;112;
56175;PMS5003;63065;51.082;17.016;2023-03-01T08:01:27;120;110;
56175;PMS5003;63065;51.082;17.016;2023-03-01T08:03:53;137;120;
56175;PMS5003;63065;51.082;17.016;2023-03-01T08:06:18;124;115;
56175;PMS5003;63065;51.082;17.016;2023-03-01T08:08:44;137;120;
56175;PMS5003;63065;51.082;17.016;2023-03-01T08:11:09;118;107;
56175;PMS5003;63065;51.082;17.016;2023-03-01T08:13:35;112;100;
56175;PMS5003;63065;51.082;17.016;2023-03-01T08:16:01;104;100;
56175;PMS5003;63065;51.082;17.016;2023-03-01T08:18:26;95;89;
56175;PMS5003;63065;51.082;17.016;2023-03-01T08:20:51;92;82;
56175;PMS5003;63065;51.082;17.016;2023-03-01T08:23:16;102;91;
56175;PMS5003;63065;51.082;17.016;2023-03-01T08:25:43;104;90;
56175;PMS5003;63065;51.082;17.016;2023-03-01T08:28:08;94;83;
56175;PMS5003;63065;51.082;17.016;2023-03-01T08:30:33;95;91;
56175;PMS5003;63065;51.082;17.016;2023-03-01T08:32:59;84;78;
56175;PMS5003;63065;51.082;17.016;2023-03-01T08:35:25;82;74;
56175;PMS5003;63065;51.082;17.016;2023-03-01T08:37:51;92;81;
56175;PMS5003;63065;51.082;17.016;2023-03-01T08:40:16;103;87;
56175;PMS5003;63065;51.082;17.016;2023-03-01T08:42:41;84;82;
56175;PMS5003;63065;51.082;17.016;2023-03-01T08:45:07;74;64;
56175;PMS5003;63065;51.082;17.016;2023-03-01T08:47:32;75;64;
56175;PMS5003;63065;51.082;17.016;2023-03-01T08:49:58;65;61;
56175;PMS5003;63065;51.082;17.016;2023-03-01T08:52:23;60;56;
56175;PMS5003;63065;51.082;17.016;2023-03-01T08:54:49;75;67;
56175;PMS5003;63065;51.082;17.016;2023-03-01T08:57:14;79;71;
56175;PMS5003;63065;51.082;17.016;2023-03-01T08:59:40;77;72;
56175;PMS5003;63065;51.082;17.016;2023-03-01T09:02:08;87;80;
56175;PMS5003;63065;51.082;17.016;2023-03-01T09:04:32;82;66;
56175;PMS5003;63065;51.082;17.016;2023-03-01T09:06:56;72;69;
56175;PMS5003;63065;51.082;17.016;2023-03-01T09:09:22;76;68;
56175;PMS5003;63065;51.082;17.016;2023-03-01T09:11:47;82;78;
56175;PMS5003;63065;51.082;17.016;2023-03-01T09:14:12;80;72;
56175;PMS5003;63065;51.082;17.016;2023-03-01T09:16:38;78;65;
56175;PMS5003;63065;51.082;17.016;2023-03-01T09:19:03;72;67;
56175;PMS5003;63065;51.082;17.016;2023-03-01T09:21:28;69;60;
56175;PMS5003;63065;51.082;17.016;2023-03-01T09:23:55;72;70;
56175;PMS5003;63065;51.082;17.016;2023-03-01T09:26:20;69;63;
56175;PMS5003;63065;51.082;17.016;2023-03-01T09:28:44;76;72;
56175;PMS5003;63065;51.082;17.016;2023-03-01T09:31:10;89;73;
56175;PMS5003;63065;51.082;17.016;2023-03-01T09:33:35;71;64;
56175;PMS5003;63065;51.082;17.016;2023-03-01T09:36:01;73;66;
56175;PMS5003;63065;51.082;17.016;2023-03-01T09:38:25;64;61;
56175;PMS5003;63065;51.082;17.016;2023-03-01T09:40:50;78;65;
56175;PMS5003;63065;51.082;17.016;2023-03-01T09:43:18;66;59;
56175;PMS5003;63065;51.082;17.016;2023-03-01T09:45:42;71;65;
56175;PMS5003;63065;51.082;17.016;2023-03-01T09:48:09;67;62;
56175;PMS5003;63065;51.082;17.016;2023-03-01T09:50:33;67;63;
56175;PMS5003;63065;51.082;17.016;2023-03-01T09:53:00;70;61;
56175;PMS5003;63065;51.082;17.016;2023-03-01T09:55:26;72;68;
56175;PMS5003;63065;51.082;17.016;2023-03-01T09:57:49;69;59;
56175;PMS5003;63065;51.082;17.016;2023-03-01T10:00:19;60;58;
56175;PMS5003;63065;51.082;17.016;2023-03-01T10:02:41;70;64;
56175;PMS5003;63065;51.082;17.016;2023-03-01T10:05:23;69;64;
56175;PMS5003;63065;51.082;17.016;2023-03-01T10:07:33;79;67;
56175;PMS5003;63065;51.082;17.016;2023-03-01T10:09:57;66;62;
56175;PMS5003;63065;51.082;17.016;2023-03-01T10:12:23;64;59;
56175;PMS5003;63065;51.082;17.016;2023-03-01T10:14:50;71;63;
56175;PMS5003;63065;51.082;17.016;2023-03-01T10:17:16;70;63;
56175;PMS5003;63065;51.082;17.016;2023-03-01T10:19:40;73;63;
56175;PMS5003;63065;51.082;17.016;2023-03-01T10:22:05;61;58;
56175;PMS5003;63065;51.082;17.016;2023-03-01T10:24:31;68;63;
56175;PMS5003;63065;51.082;17.016;2023-03-01T10:26:55;69;63;
56175;PMS5003;63065;51.082;17.016;2023-03-01T10:29:22;63;61;
56175;PMS5003;63065;51.082;17.016;2023-03-01T10:31:46;57;56;
56175;PMS5003;63065;51.082;17.016;2023-03-01T10:34:13;64;58;
56175;PMS5003;63065;51.082;17.016;2023-03-01T10:36:38;70;63;
56175;PMS5003;63065;51.082;17.016;2023-03-01T10:39:03;51;48;
56175;PMS5003;63065;51.082;17.016;2023-03-01T10:41:28;55;52;
56175;PMS5003;63065;51.082;17.016;2023-03-01T10:43:54;69;62;
56175;PMS5003;63065;51.082;17.016;2023-03-01T10:48:44;65;59;
56175;PMS5003;63065;51.082;17.016;2023-03-01T10:51:14;62;56;
56175;PMS5003;63065;51.082;17.016;2023-03-01T10:53:36;56;53;
56175;PMS5003;63065;51.082;17.016;2023-03-01T10:56:02;50;46;
56175;PMS5003;63065;51.082;17.016;2023-03-01T10:58:27;55;53;
56175;PMS5003;63065;51.082;17.016;2023-03-01T11:00:52;52;43;
56175;PMS5003;63065;51.082;17.016;2023-03-01T11:03:19;45;43;
56175;PMS5003;63065;51.082;17.016;2023-03-01T11:08:08;55;52;
56175;PMS5003;63065;51.082;17.016;2023-03-01T11:10:34;56;51;
56175;PMS5003;63065;51.082;17.016;2023-03-01T11:15:25;47;43;
56175;PMS5003;63065;51.082;17.016;2023-03-01T11:17:49;69;61;
56175;PMS5003;63065;51.082;17.016;2023-03-01T11:20:17;61;56;
56175;PMS5003;63065;51.082;17.016;2023-03-01T11:22:42;61;56;
56175;PMS5003;63065;51.082;17.016;2023-03-01T11:25:07;62;53;
56175;PMS5003;63065;51.082;17.016;2023-03-01T11:27:31;64;55;
56175;PMS5003;63065;51.082;17.016;2023-03-01T11:29:56;50;42;
56175;PMS5003;63065;51.082;17.016;2023-03-01T11:32:22;53;49;
56175;PMS5003;63065;51.082;17.016;2023-03-01T11:34:48;55;48;
56175;PMS5003;63065;51.082;17.016;2023-03-01T11:37:15;51;49;
56175;PMS5003;63065;51.082;17.016;2023-03-01T11:39:38;52;43;
56175;PMS5003;63065;51.082;17.016;2023-03-01T11:42:05;49;46;
56175;PMS5003;63065;51.082;17.016;2023-03-01T11:44:29;56;51;
56175;PMS5003;63065;51.082;17.016;2023-03-01T11:49:29;50;47;
56175;PMS5003;63065;51.082;17.016;2023-03-01T11:51:47;57;49;
56175;PMS5003;63065;51.082;17.016;2023-03-01T11:54:13;54;50;
56175;PMS5003;63065;51.082;17.016;2023-03-01T11:56:38;52;47;
56175;PMS5003;63065;51.082;17.016;2023-03-01T11:59:05;53;47;
56175;PMS5003;63065;51.082;17.016;2023-03-01T12:01:31;58;50;
56175;PMS5003;63065;51.082;17.016;2023-03-01T12:03:57;63;51;
56175;PMS5003;63065;51.082;17.016;2023-03-01T12:06:22;51;47;
56175;PMS5003;63065;51.082;17.016;2023-03-01T12:08:45;48;42;
56175;PMS5003;63065;51.082;17.016;2023-03-01T12:11:16;45;45;
56175;PMS5003;63065;51.082;17.016;2023-03-01T12:16:03;42;42;
56175;PMS5003;63065;51.082;17.016;2023-03-01T12:18:29;43;42;
56175;PMS5003;63065;51.082;17.016;2023-03-01T12:20:53;39;36;
56175;PMS5003;63065;51.082;17.016;2023-03-01T12:23:22;37;35;
56175;PMS5003;63065;51.082;17.016;2023-03-01T12:25:43;36;33;
56175;PMS5003;63065;51.082;17.016;2023-03-01T12:28:12;35;30;
56175;PMS5003;63065;51.082;17.016;2023-03-01T12:30:37;35;32;
56175;PMS5003;63065;51.082;17.016;2023-03-01T12:33:02;44;37;
56175;PMS5003;63065;51.082;17.016;2023-03-01T12:35:31;47;42;
56175;PMS5003;63065;51.082;17.016;2023-03-01T12:37:54;38;36;
56175;PMS5003;63065;51.082;17.016;2023-03-01T12:40:20;43;35;
56175;PMS5003;63065;51.082;17.016;2023-03-01T12:42:40;43;39;
56175;PMS5003;63065;51.082;17.016;2023-03-01T12:45:16;39;36;
56175;PMS5003;63065;51.082;17.016;2023-03-01T12:47:34;48;41;
56175;PMS5003;63065;51.082;17.016;2023-03-01T12:49:56;54;50;
56175;PMS5003;63065;51.082;17.016;2023-03-01T12:52:22;43;42;
56175;PMS5003;63065;51.082;17.016;2023-03-01T12:54:46;55;49;
56175;PMS5003;63065;51.082;17.016;2023-03-01T12:57:12;50;46;
56175;PMS5003;63065;51.082;17.016;2023-03-01T12:59:37;49;47;
56175;PMS5003;63065;51.082;17.016;2023-03-01T13:02:03;60;53;
56175;PMS5003;63065;51.082;17.016;2023-03-01T13:04:30;55;47;
56175;PMS5003;63065;51.082;17.016;2023-03-01T13:06:57;49;46;
56175;PMS5003;63065;51.082;17.016;2023-03-01T13:09:21;51;50;
56175;PMS5003;63065;51.082;17.016;2023-03-01T13:11:44;51;50;
56175;PMS5003;63065;51.082;17.016;2023-03-01T13:21:29;44;40;
56175;PMS5003;63065;51.082;17.016;2023-03-01T13:23:51;32;29;
56175;PMS5003;63065;51.082;17.016;2023-03-01T13:26:16;23;20;
56175;PMS5003;63065;51.082;17.016;2023-03-01T13:28:47;26;22;
56175;PMS5003;63065;51.082;17.016;2023-03-01T13:31:08;27;23;
56175;PMS5003;63065;51.082;17.016;2023-03-01T13:33:34;26;24;
56175;PMS5003;63065;51.082;17.016;2023-03-01T13:35:58;31;26;
56175;PMS5003;63065;51.082;17.016;2023-03-01T13:45:40;34;29;
56175;PMS5003;63065;51.082;17.016;2023-03-01T13:48:09;28;26;
56175;PMS5003;63065;51.082;17.016;2023-03-01T13:50:38;31;25;
56175;PMS5003;63065;51.082;17.016;2023-03-01T13:52:56;31;27;
56175;PMS5003;63065;51.082;17.016;2023-03-01T13:55:23;31;30;
56175;PMS5003;63065;51.082;17.016;2023-03-01T13:57:47;32;30;
56175;PMS5003;63065;51.082;17.016;2023-03-01T14:02:37;23;23;
56175;PMS5003;63065;51.082;17.016;2023-03-01T14:05:03;30;27;
56175;PMS5003;63065;51.082;17.016;2023-03-01T14:07:29;27;26;
56175;PMS5003;63065;51.082;17.016;2023-03-01T14:09:54;29;27;
56175;PMS5003;63065;51.082;17.016;2023-03-01T14:12:23;29;26;
56175;PMS5003;63065;51.082;17.016;2023-03-01T14:14:48;24;23;
56175;PMS5003;63065;51.082;17.016;2023-03-01T14:19:36;26;26;
56175;PMS5003;63065;51.082;17.016;2023-03-01T14:22:03;20;19;
56175;PMS5003;63065;51.082;17.016;2023-03-01T14:24:27;34;30;
56175;PMS5003;63065;51.082;17.016;2023-03-01T14:26:52;25;24;
56175;PMS5003;63065;51.082;17.016;2023-03-01T14:31:48;37;33;
56175;PMS5003;63065;51.082;17.016;2023-03-01T14:34:16;26;25;
56175;PMS5003;63065;51.082;17.016;2023-03-01T14:36:34;23;21;
56175;PMS5003;63065;51.082;17.016;2023-03-01T14:38:59;21;21;
56175;PMS5003;63065;51.082;17.016;2023-03-01T14:41:25;34;30;
56175;PMS5003;63065;51.082;17.016;2023-03-01T14:43:51;22;22;
56175;PMS5003;63065;51.082;17.016;2023-03-01T14:46:17;30;27;
56175;PMS5003;63065;51.082;17.016;2023-03-01T14:48:41;33;30;
56175;PMS5003;63065;51.082;17.016;2023-03-01T14:51:07;28;27;
56175;PMS5003;63065;51.082;17.016;2023-03-01T14:53:33;33;28;
56175;PMS5003;63065;51.082;17.016;2023-03-01T14:55:59;37;33;
56175;PMS5003;63065;51.082;17.016;2023-03-01T14:58:24;29;28;
56175;PMS5003;63065;51.082;17.016;2023-03-01T15:00:50;29;29;
56175;PMS5003;63065;51.082;17.016;2023-03-01T15:03:17;33;28;
56175;PMS5003;63065;51.082;17.016;2023-03-01T15:05:40;32;32;
56175;PMS5003;63065;51.082;17.016;2023-03-01T15:08:05;33;32;
56175;PMS5003;63065;51.082;17.016;2023-03-01T15:10:32;31;30;
56175;PMS5003;63065;51.082;17.016;2023-03-01T15:13:09;30;30;
56175;PMS5003;63065;51.082;17.016;2023-03-01T15:17:50;30;28;
56175;PMS5003;63065;51.082;17.016;2023-03-01T15:20:15;33;31;
56175;PMS5003;63065;51.082;17.016;2023-03-01T15:22:42;31;30;
56175;PMS5003;63065;51.082;17.016;2023-03-01T15:25:04;41;36;
56175;PMS5003;63065;51.082;17.016;2023-03-01T15:27:30;37;35;
56175;PMS5003;63065;51.082;17.016;2023-03-01T15:29:57;36;35;
56175;PMS5003;63065;51.082;17.016;2023-03-01T15:32:25;34;31;
56175;PMS5003;63065;51.082;17.016;2023-03-01T15:34:46;33;32;
56175;PMS5003;63065;51.082;17.016;2023-03-01T15:37:35;36;34;
56175;PMS5003;63065;51.082;17.016;2023-03-01T15:39:38;35;31;
56175;PMS5003;63065;51.082;17.016;2023-03-01T15:42:03;34;33;
56175;PMS5003;63065;51.082;17.016;2023-03-01T15:44:29;42;39;
56175;PMS5003;63065;51.082;17.016;2023-03-01T15:46:52;42;37;
56175;PMS5003;63065;51.082;17.016;2023-03-01T15:49:24;40;36;
56175;PMS5003;63065;51.082;17.016;2023-03-01T15:51:44;41;36;
56175;PMS5003;63065;51.082;17.016;2023-03-01T15:54:11;45;41;
56175;PMS5003;63065;51.082;17.016;2023-03-01T15:56:35;44;39;
56175;PMS5003;63065;51.082;17.016;2023-03-01T15:59:01;48;44;
56175;PMS5003;63065;51.082;17.016;2023-03-01T16:01:26;39;36;
56175;PMS5003;63065;51.082;17.016;2023-03-01T16:03:52;42;36;
56175;PMS5003;63065;51.082;17.016;2023-03-01T16:06:17;40;34;
56175;PMS5003;63065;51.082;17.016;2023-03-01T16:08:42;38;35;
56175;PMS5003;63065;51.082;17.016;2023-03-01T16:11:13;43;39;